Time;durP1;ratioP1;P1;durP2;ratioP2;P2;SDS_P1;SDS_P2;PMS_P1;PMS_P2;Temp;Humidity;BMP_temperature;BMP_pressure;BME280_temperature;BME280_humidity;BME280_pressure;Samples;Min_cycle;Max_cycle;Signal;HPM_P1;HPM_P2
2021/08/01 00:01:29;;;;;;;0.55;0.55;;;26.80;55.10;;;;;;5047795;28;20390;-65
2021/08/01 00:03:56;;;;;;;0.60;0.60;;;26.80;55.10;;;;;;5047336;28;20040;-65
2021/08/01 00:06:26;;;;;;;0.70;0.70;;;26.80;55.10;;;;;;5047668;28;20543;-65
2021/08/01 00:08:53;;;;;;;0.65;0.65;;;26.80;55.10;;;;;;5047074;28;20127;-65
2021/08/01 00:11:20;;;;;;;0.77;0.77;;;26.80;55.00;;;;;;5047512;28;20088;-65
2021/08/01 00:13:47;;;;;;;0.70;0.70;;;26.80;55.00;;;;;;5047067;28;20493;-65
2021/08/01 00:16:15;;;;;;;0.63;0.63;;;26.80;55.00;;;;;;5047376;28;20124;-65
2021/08/01 00:18:42;;;;;;;0.90;0.70;;;26.80;55.00;;;;;;5047143;28;20127;-65
2021/08/01 00:21:09;;;;;;;0.70;0.70;;;26.80;55.00;;;;;;5047572;28;20045;-65
2021/08/01 00:23:36;;;;;;;0.88;0.88;;;26.80;55.00;;;;;;5047263;28;20114;-65
2021/08/01 00:26:04;;;;;;;0.82;0.82;;;26.80;55.00;;;;;;5047349;28;20406;-65
2021/08/01 00:28:31;;;;;;;0.70;0.70;;;26.80;55.00;;;;;;5047117;28;20136;-65
2021/08/01 00:30:59;;;;;;;0.70;0.70;;;26.80;55.00;;;;;;5046241;28;20076;-65
2021/08/01 00:33:27;;;;;;;0.57;0.57;;;26.80;55.50;;;;;;5046785;28;20497;-65
2021/08/01 00:35:55;;;;;;;0.77;0.77;;;26.80;55.00;;;;;;5047316;28;20073;-65
2021/08/01 00:38:22;;;;;;;0.70;0.60;;;26.80;55.00;;;;;;5046941;28;20451;-65
2021/08/01 00:40:49;;;;;;;0.80;0.80;;;26.80;55.00;;;;;;5047022;28;20087;-65
2021/08/01 00:43:16;;;;;;;0.70;0.70;;;26.80;55.00;;;;;;5047028;28;20452;-65
2021/08/01 00:45:44;;;;;;;0.75;0.75;;;26.80;55.10;;;;;;5046868;28;20509;-64
2021/08/01 00:48:13;;;;;;;0.80;0.80;;;26.80;55.10;;;;;;5046928;28;20091;-65
2021/08/01 00:50:43;;;;;;;0.70;0.70;;;26.80;55.20;;;;;;5046755;28;20521;-65
2021/08/01 00:53:10;;;;;;;0.68;0.68;;;26.80;55.10;;;;;;5046830;28;20053;-65
2021/08/01 00:55:40;;;;;;;0.60;0.60;;;26.80;55.20;;;;;;5047136;28;20062;-65
2021/08/01 00:58:08;;;;;;;0.77;0.77;;;26.80;55.10;;;;;;5046472;28;20061;-65
2021/08/01 01:01:05;;;;;;;0.50;0.50;;;26.80;55.20;;;;;;5046632;28;20084;-65
2021/08/01 01:03:42;;;;;;;0.77;0.77;;;26.80;55.20;;;;;;5050420;28;20333;-65
2021/08/01 01:06:46;;;;;;;0.90;0.90;;;26.80;55.20;;;;;;5050773;28;20049;-65
2021/08/01 01:09:23;;;;;;;0.60;0.60;;;26.80;55.20;;;;;;5050092;28;20052;-65
2021/08/01 01:11:53;;;;;;;0.82;0.82;;;26.80;55.20;;;;;;5050685;28;20081;-65
2021/08/01 01:14:23;;;;;;;0.77;0.77;;;26.80;55.20;;;;;;5050095;28;20045;-65
2021/08/01 01:16:56;;;;;;;0.43;0.43;;;26.80;55.20;;;;;;5050444;28;20056;-65
2021/08/01 01:19:50;;;;;;;0.73;0.73;;;26.80;55.20;;;;;;5050405;28;20123;-65
2021/08/01 01:22:41;;;;;;;0.60;0.60;;;26.80;55.20;;;;;;5050254;28;20055;-65
2021/08/01 01:25:23;;;;;;;0.73;0.73;;;26.70;55.20;;;;;;5050090;28;20536;-65
2021/08/01 01:28:03;;;;;;;0.52;0.50;;;26.70;55.20;;;;;;5049818;28;20555;-65
2021/08/01 01:30:34;;;;;;;0.82;0.82;;;26.70;55.20;;;;;;5050136;28;20478;-65
2021/08/01 01:33:09;;;;;;;0.88;0.88;;;26.70;55.20;;;;;;5048638;28;20056;-65
2021/08/01 01:35:40;;;;;;;0.70;0.70;;;26.70;55.10;;;;;;5049894;28;20463;-65
2021/08/01 01:38:07;;;;;;;0.68;0.68;;;26.80;55.20;;;;;;5050055;28;20080;-66
2021/08/01 01:40:36;;;;;;;0.65;0.65;;;26.80;55.20;;;;;;5049853;28;20087;-65
2021/08/01 01:43:06;;;;;;;0.88;0.88;;;26.80;55.20;;;;;;5049922;28;20041;-65
2021/08/01 01:45:35;;;;;;;0.60;0.60;;;26.80;55.20;;;;;;5049678;28;20051;-65
2021/08/01 01:48:03;;;;;;;0.85;0.85;;;26.80;55.10;;;;;;5049575;28;20085;-65
2021/08/01 01:50:30;;;;;;;0.55;0.55;;;26.80;55.20;;;;;;5049603;28;20504;-65
2021/08/01 01:52:57;;;;;;;0.70;0.65;;;26.80;55.70;;;;;;5049721;28;20107;-65
2021/08/01 01:55:27;;;;;;;0.55;0.55;;;26.80;55.20;;;;;;5048476;28;20436;-65
2021/08/01 01:57:55;;;;;;;;;;;26.80;55.20;;;;;;5050012;28;20421;-65
2021/08/01 02:00:22;;;;;;;0.73;0.70;;;26.70;55.10;;;;;;5049418;28;19924;-65
2021/08/01 02:02:49;;;;;;;0.50;0.50;;;26.70;55.10;;;;;;5048112;28;20053;-65
2021/08/01 02:05:17;;;;;;;0.50;0.50;;;26.70;55.10;;;;;;5049288;28;20080;-65
2021/08/01 02:07:44;;;;;;;0.80;0.80;;;26.70;55.10;;;;;;5049241;28;20041;-65
2021/08/01 02:10:24;;;;;;;0.80;0.70;;;26.70;55.10;;;;;;5049498;28;20144;-68
2021/08/01 02:12:57;;;;;;;0.55;0.55;;;26.70;55.10;;;;;;5049021;28;20049;-65
2021/08/01 02:15:31;;;;;;;0.57;0.57;;;26.70;55.10;;;;;;5049120;28;20124;-64
2021/08/01 02:18:03;;;;;;;0.60;0.60;;;26.70;55.10;;;;;;5049109;28;20132;-65
2021/08/01 02:20:43;;;;;;;0.70;0.70;;;26.70;55.10;;;;;;5048983;28;20055;-65
2021/08/01 02:23:19;;;;;;;0.65;0.65;;;26.70;55.10;;;;;;5049142;28;20494;-64
2021/08/01 02:25:46;;;;;;;0.73;0.73;;;26.70;55.10;;;;;;5048883;28;20148;-65
2021/08/01 02:28:15;;;;;;;1.58;0.60;;;26.70;55.10;;;;;;5048850;28;20044;-66
2021/08/01 02:30:44;;;;;;;0.63;0.63;;;26.70;55.10;;;;;;5049013;28;20366;-65
2021/08/01 02:33:13;;;;;;;1.27;0.88;;;26.70;55.10;;;;;;5048913;28;20045;-64
2021/08/01 02:35:40;;;;;;;0.80;0.80;;;26.70;55.10;;;;;;5048880;28;20109;-65
2021/08/01 02:38:08;;;;;;;0.70;0.70;;;26.70;55.10;;;;;;5048555;28;20080;-65
2021/08/01 02:40:37;;;;;;;0.77;0.77;;;26.70;55.10;;;;;;5048190;28;20041;-65
2021/08/01 02:43:07;;;;;;;1.20;0.60;;;26.70;55.20;;;;;;5049091;28;20425;-65
2021/08/01 02:45:38;;;;;;;0.55;0.55;;;26.70;55.20;;;;;;5048564;28;20099;-65
2021/08/01 02:48:10;;;;;;;0.70;0.70;;;26.70;55.20;;;;;;5047402;28;20084;-65
2021/08/01 02:50:39;;;;;;;1.00;0.75;;;26.70;55.20;;;;;;5048278;28;20136;-65
2021/08/01 02:53:11;;;;;;;0.73;0.73;;;26.70;55.20;;;;;;5048602;28;20083;-65
2021/08/01 02:55:43;;;;;;;0.50;0.50;;;26.70;55.80;;;;;;5048498;28;20084;-65
2021/08/01 02:58:10;;;;;;;0.55;0.55;;;26.70;55.20;;;;;;5048236;28;20079;-64
2021/08/01 03:00:38;;;;;;;0.50;0.50;;;26.70;55.20;;;;;;5048252;28;20049;-65
2021/08/01 03:03:05;;;;;;;0.68;0.68;;;26.70;55.20;;;;;;5048208;28;20382;-65
2021/08/01 03:05:34;;;;;;;0.60;0.60;;;26.70;55.20;;;;;;5047197;28;20077;-65
2021/08/01 03:08:01;;;;;;;0.60;0.60;;;26.70;55.20;;;;;;5048305;28;20048;-65
2021/08/01 03:10:29;;;;;;;0.75;0.75;;;26.70;55.10;;;;;;5047899;28;20080;-65
2021/08/01 03:12:56;;;;;;;0.50;0.50;;;26.70;55.10;;;;;;5048285;28;20135;-65
2021/08/01 03:15:23;;;;;;;0.85;0.85;;;26.70;55.10;;;;;;5047972;28;20052;-65
2021/08/01 03:17:50;;;;;;;0.57;0.50;;;26.70;55.10;;;;;;5047986;28;20091;-65
2021/08/01 03:20:17;;;;;;;0.63;0.63;;;26.70;55.10;;;;;;5047832;28;20041;-65
2021/08/01 03:22:44;;;;;;;0.40;0.40;;;26.70;55.10;;;;;;5048008;28;20088;-65
2021/08/01 03:25:11;;;;;;;0.55;0.47;;;26.70;55.10;;;;;;5047230;28;20091;-65
2021/08/01 03:27:39;;;;;;;0.70;0.70;;;26.70;55.10;;;;;;5047776;28;20409;-65
2021/08/01 03:30:07;;;;;;;0.60;0.60;;;26.70;55.10;;;;;;5047462;28;20087;-65
2021/08/01 03:32:34;;;;;;;0.70;0.70;;;26.70;55.10;;;;;;5048149;28;20045;-65
2021/08/01 03:35:02;;;;;;;0.70;0.70;;;26.70;55.10;;;;;;5047669;28;20148;-65
2021/08/01 03:37:29;;;;;;;0.75;0.75;;;26.70;55.10;;;;;;5047753;28;20045;-65
2021/08/01 03:39:56;;;;;;;0.70;0.70;;;26.70;55.10;;;;;;5047595;28;20053;-65
2021/08/01 03:42:23;;;;;;;0.65;0.65;;;26.70;55.10;;;;;;5047798;28;20048;-64
2021/08/01 03:44:50;;;;;;;0.55;0.55;;;26.70;55.10;;;;;;5047551;28;20135;-65
2021/08/01 03:47:18;;;;;;;0.70;0.70;;;26.70;55.10;;;;;;5047404;28;20132;-65
2021/08/01 03:49:48;;;;;;;0.60;0.60;;;26.70;55.10;;;;;;5047985;28;20144;-65
2021/08/01 03:52:18;;;;;;;0.63;0.63;;;26.70;55.10;;;;;;5047533;28;20053;-65
2021/08/01 03:54:45;;;;;;;0.98;0.70;;;26.70;55.10;;;;;;5047480;28;20114;-65
2021/08/01 03:57:13;;;;;;;0.75;0.75;;;26.70;55.10;;;;;;5047065;28;20135;-65
2021/08/01 03:59:40;;;;;;;0.70;0.70;;;26.70;55.10;;;;;;5047677;28;20051;-65
2021/08/01 04:02:07;;;;;;;0.50;0.50;;;26.70;55.10;;;;;;5047301;28;20080;-65
2021/08/01 04:04:34;;;;;;;0.63;0.63;;;26.80;55.10;;;;;;5047568;28;20477;-65
2021/08/01 04:07:01;;;;;;;0.80;0.80;;;26.80;55.10;;;;;;5047327;28;20136;-65
2021/08/01 04:09:29;;;;;;;0.50;0.50;;;26.80;55.00;;;;;;5047293;28;20045;-65
2021/08/01 04:11:57;;;;;;;0.70;0.70;;;26.80;55.00;;;;;;5047092;28;20438;-65
2021/08/01 04:14:25;;;;;;;0.65;0.65;;;26.80;54.90;;;;;;5047308;28;20636;-65
2021/08/01 04:16:52;;;;;;;0.60;0.60;;;26.80;54.80;;;;;;5047179;28;20060;-65
2021/08/01 04:19:19;;;;;;;0.65;0.65;;;26.80;54.80;;;;;;5047462;28;20095;-65
2021/08/01 04:21:46;;;;;;;0.77;0.77;;;26.80;54.70;;;;;;5046974;28;20136;-65
2021/08/01 04:24:14;;;;;;;0.50;0.50;;;26.90;54.70;;;;;;5047323;28;20048;-65
2021/08/01 04:26:41;;;;;;;0.77;0.77;;;26.90;54.70;;;;;;5047319;28;20124;-65
2021/08/01 04:29:08;;;;;;;0.40;0.40;;;26.90;54.60;;;;;;5044555;28;20087;-65
2021/08/01 04:31:35;;;;;;;0.90;0.85;;;26.90;54.50;;;;;;5047305;28;20450;-65
2021/08/01 04:34:03;;;;;;;0.60;0.60;;;27.00;54.50;;;;;;5047076;28;20053;-65
2021/08/01 04:36:30;;;;;;;0.60;0.60;;;27.00;54.40;;;;;;5049549;28;20136;-65
2021/08/01 04:38:57;;;;;;;1.10;0.50;;;27.00;54.30;;;;;;5050985;28;20486;-65
2021/08/01 04:41:24;;;;;;;0.50;0.50;;;27.00;54.30;;;;;;5050788;28;20124;-65
2021/08/01 04:43:51;;;;;;;0.73;0.73;;;27.10;54.30;;;;;;5051186;28;20056;-65
2021/08/01 04:46:18;;;;;;;0.60;0.60;;;27.10;54.20;;;;;;5050765;28;20116;-65
2021/08/01 04:48:46;;;;;;;0.65;0.65;;;27.10;54.10;;;;;;5049635;28;20048;-65
2021/08/01 04:51:13;;;;;;;0.73;0.73;;;27.10;54.10;;;;;;5050912;28;20055;-65
2021/08/01 04:53:40;;;;;;;0.70;0.70;;;27.20;54.00;;;;;;5049530;28;20136;-65
2021/08/01 04:56:09;;;;;;;0.70;0.70;;;27.20;53.90;;;;;;5050804;28;20501;-65
2021/08/01 04:58:37;;;;;;;0.60;0.60;;;27.20;53.80;;;;;;5050442;28;20052;-65
2021/08/01 05:01:14;;;;;;;0.60;0.60;;;27.30;53.90;;;;;;5050663;28;20139;-65
2021/08/01 05:03:41;;;;;;;0.75;0.75;;;27.30;53.80;;;;;;5050511;28;20049;-65
2021/08/01 05:06:10;;;;;;;0.63;0.63;;;27.20;53.70;;;;;;5050645;28;20055;-65
2021/08/01 05:08:38;;;;;;;0.80;0.80;;;27.20;53.70;;;;;;5050161;28;20528;-65
2021/08/01 05:11:06;;;;;;;0.68;0.68;;;27.20;53.80;;;;;;5049286;28;20052;-65
2021/08/01 05:13:34;;;;;;;0.73;0.73;;;27.10;53.90;;;;;;5050383;28;20142;-65
2021/08/01 05:16:01;;;;;;;0.73;0.73;;;27.00;54.10;;;;;;5050289;28;20083;-65
2021/08/01 05:18:28;;;;;;;0.80;0.80;;;26.90;54.40;;;;;;5050285;28;20508;-65
2021/08/01 05:20:55;;;;;;;0.95;0.88;;;26.70;54.70;;;;;;5050370;28;20055;-65
2021/08/01 05:23:23;;;;;;;0.98;0.98;;;26.50;55.00;;;;;;5050072;28;20433;-65
2021/08/01 05:25:51;;;;;;;0.88;0.88;;;26.30;55.50;;;;;;5050262;28;20070;-65
2021/08/01 05:28:18;;;;;;;0.90;0.90;;;26.00;56.10;;;;;;5049860;28;20076;-65
2021/08/01 05:30:45;;;;;;;1.20;1.10;;;25.80;56.70;;;;;;5050185;28;20140;-66
2021/08/01 05:33:12;;;;;;;1.35;1.25;;;25.50;57.50;;;;;;5049685;28;20123;-65
2021/08/01 05:35:40;;;;;;;0.80;0.80;;;25.30;58.10;;;;;;5050097;28;20080;-65
2021/08/01 05:38:08;;;;;;;0.95;0.95;;;25.10;58.60;;;;;;5049692;28;20128;-65
2021/08/01 05:40:35;;;;;;;0.82;0.82;;;24.90;59.00;;;;;;5049651;28;20048;-65
2021/08/01 05:43:02;;;;;;;1.00;1.00;;;24.80;59.40;;;;;;5050136;28;20128;-65
2021/08/01 05:45:29;;;;;;;0.73;0.70;;;24.70;59.70;;;;;;5049648;28;20084;-65
2021/08/01 05:47:57;;;;;;;1.20;1.10;;;24.50;60.00;;;;;;5049185;28;20145;-65
2021/08/01 05:50:24;;;;;;;1.25;1.15;;;24.50;60.30;;;;;;5049765;28;20083;-65
2021/08/01 05:52:51;;;;;;;1.00;1.00;;;24.40;60.40;;;;;;5049524;28;20052;-65
2021/08/01 05:55:19;;;;;;;1.30;1.17;;;24.40;60.60;;;;;;5049591;28;20132;-65
2021/08/01 05:57:46;;;;;;;1.10;1.10;;;24.30;60.70;;;;;;5049443;28;20088;-65
2021/08/01 06:00:14;;;;;;;1.83;1.30;;;24.30;60.80;;;;;;5049507;28;20060;-65
2021/08/01 06:02:41;;;;;;;1.10;1.10;;;24.20;60.80;;;;;;5049629;28;20045;-65
2021/08/01 06:05:10;;;;;;;1.35;1.25;;;24.20;60.90;;;;;;5049410;28;20065;-65
2021/08/01 06:07:37;;;;;;;1.27;1.17;;;24.10;61.00;;;;;;5049499;28;20069;-65
2021/08/01 06:10:04;;;;;;;1.45;1.35;;;24.10;61.10;;;;;;5049471;28;20140;-65
2021/08/01 06:12:32;;;;;;;1.38;1.27;;;24.10;61.20;;;;;;5049320;28;20045;-65
2021/08/01 06:15:00;;;;;;;1.38;1.33;;;24.00;61.20;;;;;;5048883;28;20130;-65
2021/08/01 06:17:32;;;;;;;1.23;1.00;;;24.00;61.30;;;;;;5047859;28;20055;-65
2021/08/01 06:19:59;;;;;;;1.15;1.15;;;24.00;61.30;;;;;;5049454;28;20080;-65
2021/08/01 06:22:26;;;;;;;1.23;0.98;;;23.90;61.40;;;;;;5049129;28;20144;-64
2021/08/01 06:24:53;;;;;;;1.60;1.50;;;23.90;61.50;;;;;;5048829;28;20057;-66
2021/08/01 06:27:21;;;;;;;1.17;1.17;;;23.90;61.60;;;;;;5049225;28;20125;-65
2021/08/01 06:29:48;;;;;;;1.10;1.10;;;23.90;61.70;;;;;;5048683;28;20059;-65
2021/08/01 06:32:15;;;;;;;1.40;1.30;;;23.90;61.70;;;;;;5049196;28;20547;-65
2021/08/01 06:34:42;;;;;;;1.50;1.40;;;23.90;61.90;;;;;;5048660;28;20510;-65
2021/08/01 06:37:09;;;;;;;1.77;1.67;;;23.90;62.00;;;;;;5048909;28;20406;-65
2021/08/01 06:39:37;;;;;;;1.50;1.40;;;23.90;62.00;;;;;;5048488;28;20136;-65
2021/08/01 06:42:04;;;;;;;1.20;1.10;;;23.90;62.00;;;;;;5048813;28;20558;-65
2021/08/01 06:44:31;;;;;;;1.40;1.30;;;23.80;62.00;;;;;;5048255;28;20096;-65
2021/08/01 06:46:59;;;;;;;1.73;1.63;;;23.80;62.10;;;;;;5048929;28;20405;-66
2021/08/01 06:49:26;;;;;;;1.67;1.58;;;23.80;62.30;;;;;;5048521;28;20123;-65
2021/08/01 06:52:12;;;;;;;1.48;1.38;;;23.80;62.30;;;;;;5048593;28;20084;-65
2021/08/01 06:54:39;;;;;;;1.60;1.50;;;23.80;62.20;;;;;;5048079;28;20045;-65
2021/08/01 06:57:06;;;;;;;1.42;1.33;;;23.80;62.20;;;;;;5048681;28;20505;-65
2021/08/01 06:59:33;;;;;;;2.22;1.65;;;23.80;62.30;;;;;;5047156;28;20055;-65
2021/08/01 07:02:00;;;;;;;1.67;1.58;;;23.80;62.40;;;;;;5048465;28;20077;-65
2021/08/01 07:04:27;;;;;;;1.65;1.55;;;23.80;62.40;;;;;;5048151;28;20085;-65
2021/08/01 07:06:54;;;;;;;1.50;1.40;;;23.70;62.50;;;;;;5048250;28;20067;-65
2021/08/01 07:09:25;;;;;;;2.50;1.60;;;23.80;62.60;;;;;;5048586;28;20492;-65
2021/08/01 07:11:52;;;;;;;;;;;23.80;62.70;;;;;;5048582;28;20132;-65
2021/08/01 07:14:19;;;;;;;2.05;1.85;;;23.70;62.70;;;;;;5048073;28;20007;-65
2021/08/01 07:16:46;;;;;;;1.85;1.75;;;23.70;62.70;;;;;;5048005;28;20059;-65
2021/08/01 07:19:14;;;;;;;2.45;2.25;;;23.80;62.80;;;;;;5047792;28;20512;-65
2021/08/01 07:21:41;;;;;;;1.50;1.40;;;23.80;62.80;;;;;;5048194;28;20055;-65
2021/08/01 07:24:09;;;;;;;1.60;1.50;;;23.70;62.70;;;;;;5047503;28;20076;-65
2021/08/01 07:26:36;;;;;;;1.80;1.70;;;23.80;62.70;;;;;;5047978;28;20198;-64
2021/08/01 07:29:03;;;;;;;1.67;1.58;;;23.80;62.70;;;;;;5047186;28;20095;-66
2021/08/01 07:31:30;;;;;;;1.63;1.52;;;23.80;62.70;;;;;;5047999;28;20127;-65
2021/08/01 07:34:00;;;;;;;2.45;2.15;;;23.80;62.70;;;;;;5047716;28;20053;-65
2021/08/01 07:36:27;;;;;;;2.10;1.90;;;23.80;62.70;;;;;;5047971;28;20095;-65
2021/08/01 07:38:54;;;;;;;1.88;1.77;;;23.80;62.70;;;;;;5047848;28;20132;-65
2021/08/01 07:41:22;;;;;;;1.95;1.85;;;23.80;62.60;;;;;;5047503;28;20140;-65
2021/08/01 07:43:51;;;;;;;2.10;2.00;;;23.80;62.60;;;;;;5047669;28;20553;-65
2021/08/01 07:46:19;;;;;;;1.85;1.70;;;23.80;62.70;;;;;;5047521;28;20080;-65
2021/08/01 07:48:46;;;;;;;1.95;1.85;;;23.80;62.70;;;;;;5047395;28;20041;-65
2021/08/01 07:51:13;;;;;;;2.33;2.13;;;23.80;62.70;;;;;;5046831;28;20485;-65
2021/08/01 07:53:40;;;;;;;2.00;1.90;;;23.80;62.80;;;;;;5047574;28;20045;-65
2021/08/01 07:56:08;;;;;;;2.00;1.90;;;23.80;62.80;;;;;;5047552;28;20053;-65
2021/08/01 07:58:35;;;;;;;2.00;1.90;;;23.80;62.80;;;;;;5047427;28;20132;-65
2021/08/01 08:01:02;;;;;;;2.10;2.00;;;23.80;62.80;;;;;;5046035;28;20083;-65
2021/08/01 08:03:30;;;;;;;2.10;2.00;;;23.80;62.70;;;;;;5047481;28;20137;-65
2021/08/01 08:05:58;;;;;;;1.95;1.85;;;23.80;62.70;;;;;;5047073;28;20076;-65
2021/08/01 08:08:25;;;;;;;3.00;2.67;;;23.80;62.70;;;;;;5047869;28;20087;-65
2021/08/01 08:10:53;;;;;;;2.53;2.33;;;23.80;62.70;;;;;;5050436;28;20088;-65
2021/08/01 08:13:20;;;;;;;2.42;2.22;;;23.80;62.70;;;;;;5054105;28;20115;-65
2021/08/01 08:15:47;;;;;;;2.72;2.53;;;23.80;62.80;;;;;;5053876;28;20128;-65
2021/08/01 08:18:14;;;;;;;2.45;2.25;;;23.80;62.80;;;;;;5053037;28;20136;-65
2021/08/01 08:20:42;;;;;;;3.53;2.65;;;23.90;63.40;;;;;;5053685;28;20079;-65
2021/08/01 08:23:09;;;;;;;2.22;2.13;;;23.80;62.70;;;;;;5054059;28;20131;-65
2021/08/01 08:25:36;;;;;;;2.30;2.20;;;23.80;62.70;;;;;;5053631;28;20045;-65
2021/08/01 08:28:03;;;;;;;2.75;2.55;;;23.90;62.70;;;;;;5053758;28;20131;-65
2021/08/01 08:30:30;;;;;;;2.75;2.47;;;23.90;62.70;;;;;;5053746;28;20045;-65
2021/08/01 08:32:57;;;;;;;2.90;2.67;;;23.90;62.80;;;;;;5053079;28;20076;-65
2021/08/01 08:35:25;;;;;;;2.80;2.60;;;23.90;62.80;;;;;;5052362;28;20107;-65
2021/08/01 08:37:53;;;;;;;2.70;2.25;;;23.90;62.80;;;;;;5053580;28;20127;-65
2021/08/01 08:40:21;;;;;;;2.95;2.75;;;23.90;62.80;;;;;;5053643;28;20062;-65
2021/08/01 08:42:50;;;;;;;2.90;2.70;;;23.90;62.80;;;;;;5053772;28;20131;-65
2021/08/01 08:45:18;;;;;;;2.80;2.60;;;23.90;62.70;;;;;;5054081;28;20049;-65
2021/08/01 08:47:47;;;;;;;2.65;2.45;;;23.90;62.70;;;;;;5053697;28;20051;-65
2021/08/01 08:50:17;;;;;;;2.83;2.63;;;23.90;62.70;;;;;;5053768;28;20551;-65
2021/08/01 08:52:45;;;;;;;2.90;2.70;;;23.90;62.60;;;;;;5053519;28;20079;-65
2021/08/01 08:55:14;;;;;;;2.83;2.53;;;24.00;62.60;;;;;;5053729;28;20128;-65
2021/08/01 08:57:49;;;;;;;2.70;2.50;;;24.00;62.60;;;;;;5053688;28;20124;-65
2021/08/01 09:00:16;;;;;;;3.05;2.85;;;24.00;62.50;;;;;;5053523;28;20136;-65
2021/08/01 09:02:44;;;;;;;3.00;2.80;;;24.00;62.40;;;;;;5053388;28;20136;-65
2021/08/01 09:05:11;;;;;;;3.05;2.85;;;24.10;62.40;;;;;;5053641;28;20451;-65
2021/08/01 09:07:39;;;;;;;2.55;2.38;;;24.10;62.30;;;;;;5053241;28;20041;-65
2021/08/01 09:10:09;;;;;;;3.05;2.70;;;24.10;62.10;;;;;;5053644;28;20532;-65
2021/08/01 09:12:54;;;;;;;2.83;2.63;;;24.10;62.10;;;;;;5053360;28;20103;-65
2021/08/01 09:15:24;;;;;;;3.05;2.85;;;24.20;62.10;;;;;;5053782;28;20126;-66
2021/08/01 09:17:55;;;;;;;3.13;2.83;;;24.20;62.00;;;;;;5053246;28;20810;-65
2021/08/01 09:20:26;;;;;;;3.13;2.92;;;24.20;62.00;;;;;;5053441;28;20490;-65
2021/08/01 09:23:08;;;;;;;2.85;2.63;;;24.20;61.90;;;;;;5050046;28;20140;-65
2021/08/01 09:25:44;;;;;;;3.00;2.80;;;24.20;61.90;;;;;;5050493;28;20080;-65
2021/08/01 09:28:15;;;;;;;3.30;3.05;;;24.20;61.90;;;;;;5050157;28;20071;-65
2021/08/01 09:30:58;;;;;;;3.00;2.80;;;24.20;61.90;;;;;;5049895;28;20136;-65
2021/08/01 09:33:45;;;;;;;3.10;2.90;;;24.20;61.90;;;;;;5050242;28;20124;-65
2021/08/01 09:36:23;;;;;;;3.20;2.90;;;24.20;61.90;;;;;;5049819;28;20084;-65
2021/08/01 09:38:53;;;;;;;3.15;2.85;;;24.20;62.00;;;;;;5049958;28;20053;-64
2021/08/01 09:41:36;;;;;;;3.45;3.17;;;24.10;61.90;;;;;;5049788;28;20167;-65
2021/08/01 09:44:05;;;;;;;3.47;3.17;;;24.10;62.00;;;;;;5050080;28;20482;-65
2021/08/01 09:46:42;;;;;;;3.05;2.83;;;24.10;62.00;;;;;;5049698;28;20047;-65
2021/08/01 09:49:20;;;;;;;3.58;3.28;;;24.10;62.00;;;;;;5049589;28;20095;-64
2021/08/01 09:51:56;;;;;;;3.45;3.15;;;24.10;62.00;;;;;;5049680;28;20080;-65
2021/08/01 09:54:25;;;;;;;3.50;3.20;;;24.10;62.00;;;;;;5049696;28;20460;-65
2021/08/01 09:56:58;;;;;;;3.10;2.90;;;24.10;62.00;;;;;;5049736;28;20049;-65
2021/08/01 09:59:28;;;;;;;3.47;3.17;;;24.10;62.00;;;;;;5049295;28;20131;-64
2021/08/01 10:01:58;;;;;;;3.45;3.17;;;24.10;61.90;;;;;;5049424;28;20120;-65
2021/08/01 10:04:29;;;;;;;3.30;3.10;;;24.10;61.90;;;;;;5049645;28;20126;-65
2021/08/01 10:07:02;;;;;;;2.92;2.72;;;24.10;62.00;;;;;;5049374;28;20092;-64
2021/08/01 10:09:30;;;;;;;3.20;3.00;;;24.10;61.90;;;;;;5049334;28;20486;-65
2021/08/01 10:11:57;;;;;;;3.80;3.50;;;24.10;61.90;;;;;;5049242;28;20123;-65
2021/08/01 10:14:26;;;;;;;3.83;3.53;;;24.10;61.80;;;;;;5049364;28;20045;-65
2021/08/01 10:16:54;;;;;;;3.63;3.33;;;24.10;61.70;;;;;;5049249;28;20072;-64
2021/08/01 10:19:21;;;;;;;3.55;3.25;;;24.20;61.70;;;;;;5049008;28;20490;-65
2021/08/01 10:21:50;;;;;;;3.40;3.13;;;24.20;62.10;;;;;;5049490;28;20045;-65
2021/08/01 10:24:24;;;;;;;3.63;3.33;;;24.20;61.50;;;;;;5049070;28;20091;-65
2021/08/01 10:26:54;;;;;;;3.55;3.22;;;24.30;61.40;;;;;;5049275;28;20123;-64
2021/08/01 10:29:31;;;;;;;3.53;3.22;;;24.30;61.30;;;;;;5048652;28;20588;-64
2021/08/01 10:32:04;;;;;;;3.28;3.03;;;24.30;61.30;;;;;;5047910;28;20088;-65
2021/08/01 10:34:55;;;;;;;3.13;2.83;;;24.30;61.20;;;;;;5048669;28;20049;-65
2021/08/01 10:37:37;;;;;;;3.47;3.17;;;24.30;61.20;;;;;;5048649;28;20135;-65
2021/08/01 10:40:09;;;;;;;3.60;3.30;;;24.30;61.30;;;;;;5048656;28;20045;-65
2021/08/01 10:42:40;;;;;;;3.58;3.28;;;24.30;61.50;;;;;;5048688;28;20045;-65
2021/08/01 10:45:09;;;;;;;3.85;3.55;;;24.20;61.60;;;;;;5048876;28;20052;-65
2021/08/01 10:47:42;;;;;;;3.83;3.45;;;24.20;61.70;;;;;;5048589;28;20052;-66
2021/08/01 10:50:14;;;;;;;3.88;3.58;;;24.10;61.90;;;;;;5048522;28;20846;-65
2021/08/01 10:52:41;;;;;;;3.15;2.95;;;24.10;62.10;;;;;;5048805;28;20068;-65
2021/08/01 10:55:21;;;;;;;3.90;3.50;;;24.00;62.40;;;;;;5048782;28;20057;-65
2021/08/01 10:58:10;;;;;;;3.70;3.40;;;23.90;62.60;;;;;;5048722;28;20045;-65
2021/08/01 11:00:58;;;;;;;4.00;3.60;;;23.80;62.90;;;;;;5047008;28;20136;-65
2021/08/01 11:03:26;;;;;;;3.92;3.63;;;23.70;63.10;;;;;;5048536;28;20409;-65
2021/08/01 11:05:53;;;;;;;4.38;3.97;;;23.70;63.30;;;;;;5048304;28;20136;-65
2021/08/01 11:08:20;;;;;;;4.22;3.80;;;23.60;63.50;;;;;;5048032;28;20048;-65
2021/08/01 11:11:12;;;;;;;4.60;3.95;;;23.60;63.80;;;;;;5048246;28;20110;-65
2021/08/01 11:13:42;;;;;;;4.03;3.60;;;23.50;64.00;;;;;;5047974;28;20454;-65
2021/08/01 11:16:12;;;;;;;3.55;3.25;;;23.50;64.10;;;;;;5048160;28;20080;-65
2021/08/01 11:18:46;;;;;;;4.97;3.42;;;23.50;64.20;;;;;;5047747;28;20049;-65
2021/08/01 11:21:33;;;;;;;4.30;3.90;;;23.50;64.20;;;;;;5046949;28;20088;-65
2021/08/01 11:24:07;;;;;;;4.07;3.67;;;23.40;64.20;;;;;;5047916;28;20227;-65
2021/08/01 11:26:35;;;;;;;3.35;3.15;;;23.40;64.20;;;;;;5048093;28;20045;-65
2021/08/01 11:29:08;;;;;;;3.53;3.22;;;23.40;64.40;;;;;;5047715;28;20124;-65
2021/08/01 11:31:37;;;;;;;3.15;2.95;;;23.40;64.40;;;;;;5047941;28;20140;-65
2021/08/01 11:34:22;;;;;;;3.60;3.23;;;23.40;64.40;;;;;;5047937;28;20045;-65
2021/08/01 11:37:18;;;;;;;3.35;2.80;;;23.40;64.30;;;;;;5047842;28;20095;-65
2021/08/01 11:39:52;;;;;;;3.10;2.85;;;23.50;64.10;;;;;;5047346;28;20067;-65
2021/08/01 11:42:24;;;;;;;3.30;2.88;;;23.50;63.80;;;;;;5048031;28;20123;-65
2021/08/01 11:44:58;;;;;;;3.10;2.90;;;23.60;63.50;;;;;;5046998;28;20399;-65
2021/08/01 11:47:26;;;;;;;3.08;2.78;;;23.60;63.20;;;;;;5047801;28;20049;-65
2021/08/01 11:49:54;;;;;;;2.90;2.70;;;23.70;63.00;;;;;;5047228;28;20120;-65
2021/08/01 11:52:43;;;;;;;3.17;2.88;;;23.80;62.80;;;;;;5047495;28;20088;-65
2021/08/01 11:55:15;;;;;;;3.33;3.00;;;23.90;62.60;;;;;;5047223;28;20044;-65
2021/08/01 11:57:45;;;;;;;2.72;2.53;;;23.90;62.40;;;;;;5047622;28;20136;-65
2021/08/01 12:00:13;;;;;;;2.78;2.58;;;24.00;62.20;;;;;;5046099;28;20140;-65
2021/08/01 12:02:50;;;;;;;3.05;2.75;;;23.90;62.10;;;;;;5047599;28;20041;-65
2021/08/01 12:05:18;;;;;;;2.50;2.30;;;23.90;62.10;;;;;;5047522;28;20135;-65
2021/08/01 12:07:50;;;;;;;2.60;2.40;;;23.90;62.10;;;;;;5047574;28;20045;-65
2021/08/01 12:10:20;;;;;;;2.70;2.50;;;23.90;62.00;;;;;;5047067;28;20084;-65
2021/08/01 12:12:48;;;;;;;;;;;23.90;62.10;;;;;;5047843;28;20053;-65
2021/08/01 12:15:16;;;;;;;2.78;2.40;;;23.90;62.00;;;;;;5047084;28;20047;-65
2021/08/01 12:17:43;;;;;;;2.95;2.63;;;23.90;62.10;;;;;;5047179;28;20486;-65
2021/08/01 12:20:11;;;;;;;2.25;1.98;;;23.90;62.10;;;;;;5047128;28;20132;-65
2021/08/01 12:22:39;;;;;;;2.17;2.08;;;23.90;62.10;;;;;;5047600;28;20147;-65
2021/08/01 12:25:07;;;;;;;2.80;2.58;;;23.90;62.10;;;;;;5047020;28;20091;-65
2021/08/01 12:27:37;;;;;;;2.60;2.40;;;23.90;62.20;;;;;;5047257;28;20131;-65
2021/08/01 12:30:13;;;;;;;;;;;23.80;62.20;;;;;;5047607;28;20045;-65
2021/08/01 12:32:42;;;;;;;2.40;2.20;;;23.80;62.30;;;;;;5047483;28;19960;-65
2021/08/01 12:35:23;;;;;;;3.08;2.20;;;23.80;62.30;;;;;;5047228;28;20048;-65
2021/08/01 12:38:00;;;;;;;2.58;1.92;;;23.80;62.40;;;;;;5046059;28;20049;-65
2021/08/01 12:40:40;;;;;;;2.90;2.05;;;23.80;62.40;;;;;;5046913;28;20057;-65
2021/08/01 12:43:12;;;;;;;1.77;1.67;;;23.80;62.40;;;;;;5047479;28;20052;-65
2021/08/01 12:45:45;;;;;;;2.38;2.17;;;23.80;62.40;;;;;;5048884;28;20689;-65
2021/08/01 12:48:22;;;;;;;2.33;2.13;;;23.80;62.40;;;;;;5045532;28;20052;-65
2021/08/01 12:50:55;;;;;;;1.92;1.83;;;23.70;62.40;;;;;;5046762;28;20144;-65
2021/08/01 12:53:24;;;;;;;2.00;1.90;;;23.70;62.40;;;;;;5047101;28;20136;-65
2021/08/01 12:55:57;;;;;;;2.15;2.03;;;23.70;62.40;;;;;;5046712;28;20132;-65
2021/08/01 12:58:36;;;;;;;2.17;1.67;;;23.70;62.40;;;;;;5049594;28;20053;-65
2021/08/01 13:01:06;;;;;;;1.80;1.70;;;23.70;62.30;;;;;;5046803;28;20571;-65
2021/08/01 13:03:43;;;;;;;1.80;1.70;;;23.80;62.30;;;;;;5021315;28;20052;-65